createdAt,value
2023-03-03T00:01:02.334Z,101044.78
2023-03-03T00:03:29.942Z,101049.78
2023-03-03T00:05:57.487Z,101049.25
2023-03-03T00:08:25.148Z,101048.53
2023-03-03T00:10:55.472Z,101062.28
2023-03-03T00:13:25.251Z,101052.16
2023-03-03T00:15:53.735Z,101061.53
2023-03-03T00:18:31.114Z,101070.56
2023-03-03T00:21:00.952Z,101064.44
2023-03-03T00:23:32.172Z,101076.22
2023-03-03T00:26:01.155Z,101071.66
2023-03-03T00:28:31.602Z,101074.81
2023-03-03T00:31:00.800Z,101076.06
2023-03-03T00:33:35.771Z,101080.75
2023-03-03T00:36:28.777Z,101085.16
2023-03-03T00:39:13.853Z,101086.53
2023-03-03T00:41:42.699Z,101083.06
2023-03-03T00:44:36.438Z,101087.94
2023-03-03T00:47:15.272Z,101092.66
2023-03-03T00:49:43.372Z,101091.69
2023-03-03T00:52:15.152Z,101096.94
2023-03-03T00:54:42.792Z,101094.56
2023-03-03T00:57:13.001Z,101095.41
2023-03-03T00:59:40.977Z,101097.72
2023-03-03T01:02:08.740Z,101091.22
2023-03-03T01:04:36.241Z,101090.69
2023-03-03T01:07:03.836Z,101095.41
2023-03-03T01:09:31.498Z,101088.59
2023-03-03T01:11:59.111Z,101093.16
2023-03-03T01:14:28.115Z,101092.91
2023-03-03T01:16:55.670Z,101090.97
2023-03-03T01:19:23.255Z,101087.91
2023-03-03T01:21:50.777Z,101089.56
2023-03-03T01:24:18.400Z,101090.66
2023-03-03T01:26:45.891Z,101093.97
2023-03-03T01:29:13.581Z,101088.16
2023-03-03T01:31:42.428Z,101094.91
2023-03-03T01:34:09.989Z,101091.56
2023-03-03T01:36:37.813Z,101087.00
2023-03-03T01:39:05.830Z,101082.81
2023-03-03T01:41:33.784Z,101085.16
2023-03-03T01:44:01.749Z,101089.97
2023-03-03T01:46:54.545Z,101089.56
2023-03-03T01:49:25.740Z,101085.28
2023-03-03T01:51:55.674Z,101068.91
2023-03-03T01:54:26.710Z,101073.06
2023-03-03T01:56:57.330Z,101077.63
2023-03-03T01:59:26.757Z,101069.66
2023-03-03T02:01:55.661Z,101078.53
2023-03-03T02:04:23.575Z,101082.16
2023-03-03T02:06:53.733Z,101079.50
2023-03-03T02:09:24.984Z,101071.34
2023-03-03T02:11:54.195Z,101080.72
2023-03-03T02:14:21.669Z,101084.56
2023-03-03T02:16:49.184Z,101083.16
2023-03-03T02:19:25.237Z,101077.56
2023-03-03T02:21:53.218Z,101068.69
2023-03-03T02:24:27.141Z,101068.81
2023-03-03T02:26:56.726Z,101068.63
2023-03-03T02:29:24.261Z,101078.91
2023-03-03T02:31:51.864Z,101074.75
2023-03-03T02:34:19.484Z,101077.25
2023-03-03T02:36:47.046Z,101080.00
2023-03-03T02:39:18.094Z,101080.25
2023-03-03T02:41:48.152Z,101075.25
2023-03-03T02:44:19.567Z,101078.00
2023-03-03T02:46:48.407Z,101081.69
2023-03-03T02:49:17.964Z,101086.16
2023-03-03T02:51:45.706Z,101081.56
2023-03-03T02:54:14.590Z,101079.91
2023-03-03T02:56:42.215Z,101090.69
2023-03-03T02:59:09.805Z,101086.53
2023-03-03T03:01:38.720Z,101073.94
2023-03-03T03:04:09.390Z,101085.69
2023-03-03T03:06:37.112Z,101084.53
2023-03-03T03:09:04.760Z,101078.53
2023-03-03T03:11:32.284Z,101083.91
2023-03-03T03:13:59.849Z,101084.41
2023-03-03T03:16:27.356Z,101081.09
2023-03-03T03:18:56.660Z,101085.25
2023-03-03T03:21:24.270Z,101088.63
2023-03-03T03:23:51.819Z,101087.91
2023-03-03T03:26:21.003Z,101082.75
2023-03-03T03:28:48.964Z,101087.66
2023-03-03T03:31:17.172Z,101087.22
2023-03-03T03:33:44.804Z,101085.28
2023-03-03T03:36:13.741Z,101079.56
2023-03-03T03:38:41.242Z,101082.09
2023-03-03T03:41:08.969Z,101086.28
2023-03-03T03:43:36.783Z,101083.19
2023-03-03T03:46:04.451Z,101091.06
2023-03-03T03:48:32.213Z,101098.25
2023-03-03T03:50:59.780Z,101095.72
2023-03-03T03:53:28.906Z,101092.72
2023-03-03T03:55:56.434Z,101097.41
2023-03-03T03:58:23.990Z,101092.53
2023-03-03T04:00:51.656Z,101101.22
2023-03-03T04:03:19.335Z,101100.06
2023-03-03T04:05:46.945Z,101097.31
2023-03-03T04:08:14.579Z,101090.88
2023-03-03T04:10:43.410Z,101092.78
2023-03-03T04:13:10.928Z,101092.41
2023-03-03T04:15:38.632Z,101097.91
2023-03-03T04:18:06.210Z,101098.03
2023-03-03T04:20:33.685Z,101095.88
2023-03-03T04:23:01.210Z,101102.34
2023-03-03T04:25:28.788Z,101103.75
2023-03-03T04:27:57.683Z,101105.22
2023-03-03T04:30:26.833Z,101111.19
2023-03-03T04:32:54.323Z,101115.84
2023-03-03T04:35:22.014Z,101106.66
2023-03-03T04:37:49.616Z,101112.38
2023-03-03T04:40:18.259Z,101106.28
2023-03-03T04:42:45.883Z,101116.91
2023-03-03T04:45:14.801Z,101112.38
2023-03-03T04:47:42.372Z,101114.28
2023-03-03T04:50:11.707Z,101109.88
2023-03-03T04:52:39.546Z,101109.03
2023-03-03T04:55:10.358Z,101101.16
2023-03-03T04:57:38.057Z,101108.22
2023-03-03T05:00:07.273Z,101112.84
2023-03-03T05:02:36.358Z,101110.34
2023-03-03T05:05:04.055Z,101115.25
2023-03-03T05:07:31.601Z,101117.25
2023-03-03T05:09:59.101Z,101129.13
2023-03-03T05:12:26.978Z,101123.13
2023-03-03T05:14:54.533Z,101126.97
2023-03-03T05:17:22.135Z,101134.56
2023-03-03T05:19:51.078Z,101131.25
2023-03-03T05:22:18.610Z,101135.03
2023-03-03T05:24:49.165Z,101131.44
2023-03-03T05:27:16.926Z,101136.09
2023-03-03T05:29:44.880Z,101142.91
2023-03-03T05:32:12.693Z,101140.47
2023-03-03T05:34:40.590Z,101134.03
2023-03-03T05:37:12.754Z,101145.56
2023-03-03T05:39:40.734Z,101146.19
2023-03-03T05:42:08.268Z,101144.84
2023-03-03T05:44:35.876Z,101153.28
2023-03-03T05:47:03.333Z,101157.81
2023-03-03T05:49:30.900Z,101151.94
2023-03-03T05:51:59.142Z,101144.25
2023-03-03T05:54:27.988Z,101152.72
2023-03-03T05:56:57.228Z,101152.88
2023-03-03T05:59:25.669Z,101164.84
2023-03-03T06:01:53.293Z,101162.44
2023-03-03T06:04:20.895Z,101163.84
2023-03-03T06:06:48.500Z,101160.59
2023-03-03T06:09:18.983Z,101163.31
2023-03-03T06:11:48.406Z,101162.63
2023-03-03T06:14:16.205Z,101163.44
2023-03-03T06:16:44.146Z,101181.19
2023-03-03T06:19:11.927Z,101180.19
2023-03-03T06:21:39.676Z,101183.13
2023-03-03T06:24:07.936Z,101190.66
2023-03-03T06:26:35.718Z,101202.50
2023-03-03T06:29:04.619Z,101199.88
2023-03-03T06:31:32.462Z,101202.28
2023-03-03T06:34:00.075Z,101203.25
2023-03-03T06:36:27.989Z,101203.13
2023-03-03T06:38:56.588Z,101211.00
2023-03-03T06:41:24.207Z,101210.88
2023-03-03T06:43:51.895Z,101209.81
2023-03-03T06:46:23.949Z,101223.78
2023-03-03T06:48:51.509Z,101221.06
2023-03-03T06:51:26.845Z,101216.03
2023-03-03T06:53:56.488Z,101216.03
2023-03-03T06:56:25.296Z,101237.09
2023-03-03T06:58:55.434Z,101234.28
2023-03-03T07:01:24.506Z,101237.84
2023-03-03T07:03:52.344Z,101238.06
2023-03-03T07:06:25.302Z,101241.41
2023-03-03T07:08:53.445Z,101259.75
2023-03-03T07:11:22.367Z,101259.03
2023-03-03T07:13:51.481Z,101250.84
2023-03-03T07:16:20.499Z,101260.50
2023-03-03T07:18:52.009Z,101259.00
2023-03-03T07:21:21.711Z,101257.97
2023-03-03T07:23:50.645Z,101274.94
2023-03-03T07:26:19.960Z,101275.16
2023-03-03T07:28:54.547Z,101274.63
2023-03-03T07:31:32.119Z,101278.47
2023-03-03T07:34:02.048Z,101278.47
2023-03-03T07:36:31.883Z,101278.16
2023-03-03T07:39:01.364Z,101286.13
2023-03-03T07:41:29.463Z,101295.69
2023-03-03T07:44:01.235Z,101300.84
2023-03-03T07:46:32.167Z,101306.47
2023-03-03T07:49:01.464Z,101301.53
2023-03-03T07:51:31.724Z,101303.50
2023-03-03T07:54:16.208Z,101307.78
2023-03-03T07:56:43.711Z,101309.88
2023-03-03T07:59:21.034Z,101310.72
2023-03-03T08:01:49.697Z,101319.63
2023-03-03T08:04:23.165Z,101334.44
2023-03-03T08:06:52.455Z,101330.03
2023-03-03T08:09:44.931Z,101327.59
2023-03-03T08:12:27.034Z,101323.06
2023-03-03T08:14:55.525Z,101334.91
2023-03-03T08:17:24.757Z,101328.50
2023-03-03T08:19:54.799Z,101319.63
2023-03-03T08:22:30.683Z,101328.16
2023-03-03T08:24:58.234Z,101321.16
2023-03-03T08:27:26.060Z,101321.06
2023-03-03T08:29:53.584Z,101332.25
2023-03-03T08:32:21.224Z,101322.81
2023-03-03T08:34:48.790Z,101328.56
2023-03-03T08:37:17.607Z,101325.84
2023-03-03T08:39:45.705Z,101333.75
2023-03-03T08:42:16.099Z,101331.19
2023-03-03T08:44:43.771Z,101330.94
2023-03-03T08:47:11.418Z,101336.34
2023-03-03T08:49:39.965Z,101332.63
2023-03-03T08:52:07.477Z,101326.56
2023-03-03T08:54:36.448Z,101339.34
2023-03-03T08:57:03.930Z,101335.19
2023-03-03T08:59:31.751Z,101331.03
2023-03-03T09:01:59.341Z,101340.34
2023-03-03T09:04:27.489Z,101337.59
2023-03-03T09:06:55.138Z,101344.56
2023-03-03T09:09:22.701Z,101345.28
2023-03-03T09:11:51.554Z,101346.00
2023-03-03T09:14:20.926Z,101341.94
2023-03-03T09:16:52.092Z,101336.44
2023-03-03T09:19:23.606Z,101341.81
2023-03-03T09:21:52.443Z,101345.53
2023-03-03T09:24:25.630Z,101354.97
2023-03-03T09:26:54.872Z,101357.00
2023-03-03T09:29:28.149Z,101349.72
2023-03-03T09:31:57.544Z,101349.25
2023-03-03T09:34:27.808Z,101347.47
2023-03-03T09:36:56.279Z,101350.94
2023-03-03T09:39:26.131Z,101349.16
2023-03-03T09:42:07.551Z,101354.88
2023-03-03T09:44:52.864Z,101348.91
2023-03-03T09:47:48.106Z,101368.88
2023-03-03T09:50:26.685Z,101363.88
2023-03-03T09:52:58.990Z,101379.91
2023-03-03T09:55:37.247Z,101366.63
2023-03-03T09:58:45.735Z,101369.50
2023-03-03T10:01:32.267Z,101370.31
2023-03-03T10:04:18.029Z,101372.84
2023-03-03T10:06:48.206Z,101373.44
2023-03-03T10:09:39.969Z,101371.28
2023-03-03T10:12:12.346Z,101368.19
2023-03-03T10:14:50.410Z,101372.72
2023-03-03T10:17:35.294Z,101385.66
2023-03-03T10:20:15.432Z,101383.84
2023-03-03T10:22:49.845Z,101380.47
2023-03-03T10:25:24.118Z,101376.50
2023-03-03T10:28:02.318Z,101384.06
2023-03-03T10:30:51.221Z,101382.03
2023-03-03T10:33:30.715Z,101382.59
2023-03-03T10:36:16.558Z,101390.25
2023-03-03T10:38:55.459Z,101394.78
2023-03-03T10:41:40.038Z,101389.41
2023-03-03T10:44:25.654Z,101391.75
2023-03-03T10:47:07.805Z,101385.53
2023-03-03T10:49:46.128Z,101386.22
2023-03-03T10:52:33.798Z,101385.59
2023-03-03T10:55:39.404Z,101389.44
2023-03-03T10:58:31.288Z,101384.69
2023-03-03T11:01:05.551Z,101388.50
2023-03-03T11:03:56.879Z,101386.34
2023-03-03T11:06:29.267Z,101375.41
2023-03-03T11:09:03.439Z,101382.38
2023-03-03T11:11:41.043Z,101376.16
2023-03-03T11:14:13.366Z,101382.59
2023-03-03T11:16:53.607Z,101377.56
2023-03-03T11:19:38.674Z,101370.94
2023-03-03T11:22:19.427Z,101377.78
2023-03-03T11:24:55.727Z,101372.66
2023-03-03T11:27:31.920Z,101364.09
2023-03-03T11:30:07.947Z,101362.84
2023-03-03T11:32:41.683Z,101366.19
2023-03-03T11:35:21.687Z,101367.19
2023-03-03T11:37:59.992Z,101360.66
2023-03-03T11:40:31.436Z,101366.00
2023-03-03T11:43:05.013Z,101355.25
2023-03-03T11:45:36.706Z,101351.97
2023-03-03T11:48:09.458Z,101347.06
2023-03-03T11:50:40.035Z,101337.94
2023-03-03T11:53:23.696Z,101330.69
2023-03-03T11:55:56.655Z,101325.72
2023-03-03T11:58:27.756Z,101332.97
2023-03-03T12:00:59.671Z,101333.09
2023-03-03T12:03:30.432Z,101324.06
2023-03-03T12:06:07.945Z,101320.16
2023-03-03T12:08:45.020Z,101323.13
2023-03-03T12:11:19.253Z,101321.25
2023-03-03T12:13:54.499Z,101304.28
2023-03-03T12:16:30.264Z,101308.56
2023-03-03T12:19:28.347Z,101304.69
2023-03-03T12:22:07.567Z,101312.22
2023-03-03T12:24:46.174Z,101302.88
2023-03-03T12:27:20.103Z,101298.00
2023-03-03T12:29:55.023Z,101297.03
2023-03-03T12:32:35.239Z,101294.22
2023-03-03T12:35:07.734Z,101291.16
2023-03-03T12:37:52.639Z,101277.41
2023-03-03T12:40:22.984Z,101282.13
2023-03-03T12:43:03.536Z,101280.47
2023-03-03T12:45:38.884Z,101279.50
2023-03-03T12:48:11.009Z,101286.28
2023-03-03T12:50:44.720Z,101283.19
2023-03-03T12:53:20.555Z,101277.91
2023-03-03T12:55:54.601Z,101273.47
2023-03-03T12:58:35.177Z,101269.72
2023-03-03T13:01:12.182Z,101280.94
2023-03-03T13:03:55.019Z,101281.34
2023-03-03T13:06:28.851Z,101266.34
2023-03-03T13:09:21.693Z,101273.00
2023-03-03T13:12:05.772Z,101256.97
2023-03-03T13:14:38.902Z,101258.47
2023-03-03T13:17:17.136Z,101249.72
2023-03-03T13:19:49.089Z,101257.94
2023-03-03T13:22:23.502Z,101247.50
2023-03-03T13:24:59.314Z,101245.88
2023-03-03T13:27:33.249Z,101241.56
2023-03-03T13:30:02.657Z,101249.34
2023-03-03T13:32:37.438Z,101245.72
2023-03-03T13:35:08.643Z,101247.06
2023-03-03T13:37:41.105Z,101245.31
2023-03-03T13:40:17.694Z,101238.75
2023-03-03T13:42:49.796Z,101240.41
2023-03-03T13:45:20.044Z,101245.31
2023-03-03T13:47:51.218Z,101239.06
2023-03-03T13:50:23.741Z,101232.97
2023-03-03T13:53:01.921Z,101227.91
2023-03-03T13:55:31.612Z,101232.28
2023-03-03T13:58:09.920Z,101229.72
2023-03-03T14:00:49.386Z,101228.34
2023-03-03T14:03:27.333Z,101225.00
2023-03-03T14:05:58.968Z,101223.56
2023-03-03T14:08:43.203Z,101212.53
2023-03-03T14:11:13.051Z,101220.75
2023-03-03T14:13:46.204Z,101218.25
2023-03-03T14:16:18.997Z,101220.75
2023-03-03T14:18:55.452Z,101214.38
2023-03-03T14:21:29.525Z,101216.81
2023-03-03T14:24:00.798Z,101221.81
2023-03-03T14:26:28.729Z,101215.41
2023-03-03T14:29:20.294Z,101221.47
2023-03-03T14:31:47.915Z,101220.16
2023-03-03T14:34:28.269Z,101208.22
2023-03-03T14:37:00.552Z,101210.84
2023-03-03T14:39:33.487Z,101212.44
2023-03-03T14:42:01.662Z,101212.16
2023-03-03T14:44:34.090Z,101208.50
2023-03-03T14:47:14.067Z,101216.06
2023-03-03T14:49:41.837Z,101212.22
2023-03-03T14:52:20.899Z,101204.66
2023-03-03T14:54:50.464Z,101202.06
2023-03-03T14:57:19.776Z,101190.78
2023-03-03T14:59:59.734Z,101202.06
2023-03-03T15:02:31.579Z,101201.75
2023-03-03T15:05:20.138Z,101193.50
2023-03-03T15:07:50.326Z,101195.69
2023-03-03T15:10:31.923Z,101186.91
2023-03-03T15:13:00.159Z,101195.84
2023-03-03T15:15:29.958Z,101194.03
2023-03-03T15:18:01.926Z,101195.47
2023-03-03T15:20:42.451Z,101195.63
2023-03-03T15:23:31.306Z,101197.44
2023-03-03T15:26:01.023Z,101196.31
2023-03-03T15:28:44.768Z,101201.16
2023-03-03T15:31:19.976Z,101197.38
2023-03-03T15:33:54.356Z,101192.66
2023-03-03T15:36:30.405Z,101200.84
2023-03-03T15:39:04.566Z,101191.59
2023-03-03T15:41:39.807Z,101193.88
2023-03-03T15:44:15.204Z,101192.81
2023-03-03T15:46:54.970Z,101190.16
2023-03-03T15:49:33.467Z,101190.25
2023-03-03T15:52:21.359Z,101184.25
2023-03-03T15:54:55.483Z,101183.59
2023-03-03T15:57:27.973Z,101192.81
2023-03-03T16:00:22.241Z,101193.09
2023-03-03T16:02:54.159Z,101187.50
2023-03-03T16:05:25.035Z,101185.47
2023-03-03T16:08:00.937Z,101192.03
2023-03-03T16:10:36.238Z,101192.03
2023-03-03T16:13:17.632Z,101190.69
2023-03-03T16:15:53.406Z,101194.59
2023-03-03T16:18:30.390Z,101187.63
2023-03-03T16:21:07.176Z,101193.47
2023-03-03T16:23:41.025Z,101199.28
2023-03-03T16:26:17.120Z,101199.75
2023-03-03T16:28:59.599Z,101206.63
2023-03-03T16:31:30.752Z,101208.91
2023-03-03T16:34:03.429Z,101204.56
2023-03-03T16:36:36.379Z,101211.53
2023-03-03T16:39:06.432Z,101211.69
2023-03-03T16:41:47.357Z,101207.34
2023-03-03T16:44:24.561Z,101208.78
2023-03-03T16:46:52.456Z,101218.44
2023-03-03T16:49:26.765Z,101210.88
2023-03-03T16:51:58.017Z,101213.16
2023-03-03T16:54:33.679Z,101216.09
2023-03-03T16:57:09.960Z,101223.78
2023-03-03T16:59:45.988Z,101218.63
2023-03-03T17:02:35.639Z,101230.06
2023-03-03T17:05:07.606Z,101228.84
2023-03-03T17:07:44.550Z,101230.22
2023-03-03T17:10:24.040Z,101229.13
2023-03-03T17:13:10.755Z,101235.56
2023-03-03T17:15:46.389Z,101235.84
2023-03-03T17:18:16.146Z,101240.88
2023-03-03T17:20:52.499Z,101247.16
2023-03-03T17:23:32.536Z,101247.31
2023-03-03T17:26:07.259Z,101249.28
2023-03-03T17:28:44.614Z,101262.50
2023-03-03T17:31:20.420Z,101257.63
2023-03-03T17:34:03.409Z,101264.88
2023-03-03T17:36:45.887Z,101276.16
2023-03-03T17:39:36.692Z,101278.94
2023-03-03T17:42:09.849Z,101284.66
2023-03-03T17:44:42.417Z,101278.66
2023-03-03T17:47:12.399Z,101283.28
2023-03-03T17:50:05.011Z,101283.94
2023-03-03T17:53:06.773Z,101303.00
2023-03-03T17:55:45.667Z,101296.59
2023-03-03T17:58:25.850Z,101301.19
2023-03-03T18:01:00.952Z,101300.78
2023-03-03T18:04:14.687Z,101314.72
2023-03-03T18:06:55.463Z,101321.94
2023-03-03T18:09:31.700Z,101315.75
2023-03-03T18:12:04.461Z,101321.06
2023-03-03T18:14:46.862Z,101317.97
2023-03-03T18:17:41.256Z,101321.28
2023-03-03T18:20:42.360Z,101320.44
2023-03-03T18:23:31.318Z,101325.72
2023-03-03T18:26:01.638Z,101327.97
2023-03-03T18:28:47.414Z,101325.31
2023-03-03T18:31:24.576Z,101328.09
2023-03-03T18:34:09.435Z,101329.34
2023-03-03T18:36:39.915Z,101336.97
2023-03-03T18:39:14.833Z,101330.28
2023-03-03T18:42:30.348Z,101332.19
2023-03-03T18:45:11.676Z,101333.59
2023-03-03T18:47:59.407Z,101337.47
2023-03-03T18:50:32.902Z,101333.97
2023-03-03T18:53:27.260Z,101342.69
2023-03-03T18:55:56.420Z,101345.34
2023-03-03T18:58:34.613Z,101353.53
2023-03-03T19:01:39.142Z,101348.63
2023-03-03T19:04:23.005Z,101364.56
2023-03-03T19:07:26.863Z,101363.28
2023-03-03T19:10:01.461Z,101367.59
2023-03-03T19:13:02.615Z,101367.38
2023-03-03T19:15:50.363Z,101375.25
2023-03-03T19:18:24.952Z,101373.56
2023-03-03T19:21:01.238Z,101371.31
2023-03-03T19:23:54.416Z,101376.72
2023-03-03T19:26:42.061Z,101372.09
2023-03-03T19:29:40.251Z,101377.53
2023-03-03T19:32:22.531Z,101381.63
2023-03-03T19:34:56.789Z,101386.38
2023-03-03T19:37:37.556Z,101375.13
2023-03-03T19:40:16.251Z,101384.38
2023-03-03T19:42:47.676Z,101377.56
2023-03-03T19:45:28.328Z,101381.31
2023-03-03T19:48:03.531Z,101376.84
2023-03-03T19:50:40.239Z,101384.06
2023-03-03T19:53:32.475Z,101367.31
2023-03-03T19:56:16.431Z,101379.56
2023-03-03T19:58:55.658Z,101384.47
2023-03-03T20:01:25.922Z,101388.34
2023-03-03T20:04:04.986Z,101385.47
2023-03-03T20:06:45.446Z,101387.06
2023-03-03T20:09:22.327Z,101384.50
2023-03-03T20:11:59.574Z,101391.06
2023-03-03T20:14:44.259Z,101390.50
2023-03-03T20:17:33.160Z,101392.66
2023-03-03T20:20:06.800Z,101401.53
2023-03-03T20:22:39.175Z,101406.66
2023-03-03T20:25:16.177Z,101405.72
2023-03-03T20:27:48.711Z,101401.75
2023-03-03T20:30:28.735Z,101398.69
2023-03-03T20:33:12.508Z,101409.09
2023-03-03T20:35:48.664Z,101401.91
2023-03-03T20:38:24.630Z,101410.88
2023-03-03T20:41:05.355Z,101415.09
2023-03-03T20:43:46.044Z,101416.13
2023-03-03T20:46:20.102Z,101418.44
2023-03-03T20:49:02.397Z,101420.59
2023-03-03T20:51:36.183Z,101425.13
2023-03-03T20:54:09.667Z,101416.88
2023-03-03T20:56:44.678Z,101428.00
2023-03-03T20:59:19.872Z,101427.28
2023-03-03T21:01:54.964Z,101432.44
2023-03-03T21:04:25.773Z,101434.94
2023-03-03T21:06:53.851Z,101431.34
2023-03-03T21:09:27.500Z,101426.81
2023-03-03T21:11:59.511Z,101435.19
2023-03-03T21:14:29.284Z,101429.69
2023-03-03T21:16:58.444Z,101439.44
2023-03-03T21:19:28.389Z,101431.03
2023-03-03T21:21:58.523Z,101437.69
2023-03-03T21:24:52.581Z,101427.66
2023-03-03T21:27:32.246Z,101429.22
2023-03-03T21:30:05.086Z,101433.44
2023-03-03T21:32:38.522Z,101425.22
2023-03-03T21:35:08.353Z,101433.09
2023-03-03T21:37:45.186Z,101439.19
2023-03-03T21:40:14.994Z,101429.38
2023-03-03T21:42:45.060Z,101425.41
2023-03-03T21:45:14.325Z,101430.09
2023-03-03T21:47:42.159Z,101444.19
2023-03-03T21:50:11.490Z,101432.81
2023-03-03T21:52:39.291Z,101428.84
2023-03-03T21:55:08.319Z,101432.34
2023-03-03T21:57:36.114Z,101441.72
2023-03-03T22:00:06.437Z,101443.69
2023-03-03T22:02:34.081Z,101452.00
2023-03-03T22:05:03.185Z,101449.50
2023-03-03T22:07:32.555Z,101449.03
2023-03-03T22:10:00.307Z,101451.31
2023-03-03T22:12:27.921Z,101456.16
2023-03-03T22:14:55.553Z,101448.84
2023-03-03T22:17:25.547Z,101452.50
2023-03-03T22:19:53.526Z,101457.94
2023-03-03T22:22:21.078Z,101461.84
2023-03-03T22:24:49.956Z,101456.56
2023-03-03T22:27:20.128Z,101461.94
2023-03-03T22:29:47.853Z,101461.38
2023-03-03T22:32:15.560Z,101461.38
2023-03-03T22:34:44.676Z,101465.09
2023-03-03T22:37:12.352Z,101470.34
2023-03-03T22:39:39.963Z,101461.03
2023-03-03T22:42:07.610Z,101456.75
2023-03-03T22:44:35.270Z,101464.56
2023-03-03T22:47:02.808Z,101459.63
2023-03-03T22:49:30.643Z,101460.84
2023-03-03T22:52:00.892Z,101469.38
2023-03-03T22:54:28.537Z,101468.53
2023-03-03T22:56:56.385Z,101470.00
2023-03-03T22:59:24.171Z,101462.69
2023-03-03T23:01:51.758Z,101461.22
2023-03-03T23:04:19.408Z,101458.91
2023-03-03T23:06:47.035Z,101461.84
2023-03-03T23:09:16.000Z,101459.88
2023-03-03T23:11:43.689Z,101460.69
2023-03-03T23:14:11.495Z,101459.91
2023-03-03T23:16:39.172Z,101460.78
2023-03-03T23:19:06.771Z,101465.81
2023-03-03T23:21:34.365Z,101461.41
2023-03-03T23:24:02.001Z,101460.75
2023-03-03T23:26:31.318Z,101466.59
2023-03-03T23:28:58.929Z,101459.22
2023-03-03T23:31:27.088Z,101465.09
2023-03-03T23:33:54.883Z,101461.44
2023-03-03T23:36:22.557Z,101465.78
2023-03-03T23:38:50.256Z,101460.06
2023-03-03T23:41:17.986Z,101461.16
2023-03-03T23:43:47.204Z,101473.72
2023-03-03T23:46:15.399Z,101465.69
2023-03-03T23:48:43.092Z,101472.16
2023-03-03T23:51:10.758Z,101476.81
2023-03-03T23:53:38.420Z,101473.41
2023-03-03T23:56:07.043Z,101472.25
2023-03-03T23:58:34.730Z,101473.59
